TUI5LP LFKC-LFKJ
Flight info
| Callsign | TUI5LP |
|---|---|
| Flight time | 0h 16m |
| Altitude | 12000 |
| Route | BEBEV/N0352F110 DCT HORRO |
| Aircraft | B738/M-SDE2E3FGHIRWXY/LB1 |
Departure
| Time | 2026-04-27 07:33 |
|---|---|
| Airport | Calvi Sainte Catherine Airport (LFKC) |
Arrival
| Time | 2026-04-27 07:49 |
|---|---|
| Airport | Ajaccio Napoléon Bonaparte airport (LFKJ) |
| Time | Latitude | Longitude | Altitude | Speed | Heading |
|---|---|---|---|---|---|
| 2026-04-27 07:08 | 42.52517 | 8.79083 | 201 ft | 0 kts | 300° |
| 2026-04-27 07:25 | 42.52509 | 8.79100 | 206 ft | 4 kts | 298° |
| 2026-04-27 07:25 | 42.52499 | 8.79133 | 207 ft | 4 kts | 280° |
| 2026-04-27 07:25 | 42.52499 | 8.79159 | 207 ft | 4 kts | 205° |
| 2026-04-27 07:26 | 42.52503 | 8.79162 | 206 ft | 1 kts | 179° |
| 2026-04-27 07:29 | 42.52497 | 8.79162 | 207 ft | 3 kts | 179° |
| 2026-04-27 07:29 | 42.52463 | 8.79163 | 195 ft | 7 kts | 178° |
| 2026-04-27 07:30 | 42.52436 | 8.79211 | 193 ft | 7 kts | 95° |
| 2026-04-27 07:30 | 42.52434 | 8.79279 | 193 ft | 7 kts | 100° |
| 2026-04-27 07:30 | 42.52392 | 8.79301 | 198 ft | 7 kts | 179° |
| 2026-04-27 07:30 | 42.52343 | 8.79302 | 209 ft | 8 kts | 179° |
| 2026-04-27 07:31 | 42.52264 | 8.79302 | 207 ft | 14 kts | 180° |
| 2026-04-27 07:31 | 42.52148 | 8.79301 | 215 ft | 18 kts | 179° |
| 2026-04-27 07:31 | 42.52080 | 8.79272 | 220 ft | 9 kts | 211° |
| 2026-04-27 07:31 | 42.52048 | 8.79296 | 226 ft | 7 kts | 69° |
| 2026-04-27 07:32 | 42.52068 | 8.79304 | 221 ft | 0 kts | 356° |
| 2026-04-27 07:32 | 42.52140 | 8.79300 | 214 ft | 39 kts | 358° |
| 2026-04-27 07:32 | 42.52731 | 8.79298 | 173 ft | 128 kts | 360° |
| 2026-04-27 07:32 | 42.53841 | 8.79295 | 458 ft | 171 kts | 360° |
| 2026-04-27 07:33 | 42.55007 | 8.79283 | 1569 ft | 170 kts | 360° |
| 2026-04-27 07:33 | 42.56285 | 8.79277 | 2219 ft | 202 kts | 360° |
| 2026-04-27 07:33 | 42.57810 | 8.79190 | 2552 ft | 232 kts | 348° |
| 2026-04-27 07:33 | 42.59293 | 8.78186 | 3016 ft | 256 kts | 317° |
| 2026-04-27 07:34 | 42.60271 | 8.76133 | 3837 ft | 266 kts | 287° |
| 2026-04-27 07:34 | 42.60588 | 8.73643 | 4703 ft | 271 kts | 276° |
| 2026-04-27 07:34 | 42.60760 | 8.71105 | 4997 ft | 270 kts | 275° |
| 2026-04-27 07:34 | 42.60914 | 8.68533 | 4992 ft | 274 kts | 274° |
| 2026-04-27 07:35 | 42.61062 | 8.65970 | 5005 ft | 271 kts | 274° |
| 2026-04-27 07:35 | 42.61149 | 8.63423 | 4994 ft | 270 kts | 264° |
| 2026-04-27 07:35 | 42.60782 | 8.60936 | 4995 ft | 268 kts | 264° |
| 2026-04-27 07:35 | 42.60768 | 8.58413 | 4996 ft | 267 kts | 263° |
| 2026-04-27 07:36 | 42.60037 | 8.56118 | 5066 ft | 273 kts | 226° |
| 2026-04-27 07:36 | 42.58387 | 8.54921 | 5915 ft | 274 kts | 188° |
| 2026-04-27 07:36 | 42.56488 | 8.54868 | 7085 ft | 273 kts | 181° |
| 2026-04-27 07:36 | 42.54580 | 8.54676 | 8126 ft | 277 kts | 186° |
| 2026-04-27 07:37 | 42.52654 | 8.54321 | 9170 ft | 281 kts | 188° |
| 2026-04-27 07:37 | 42.50734 | 8.53868 | 10112 ft | 289 kts | 189° |
| 2026-04-27 07:37 | 42.48752 | 8.53331 | 10796 ft | 291 kts | 191° |
| 2026-04-27 07:37 | 42.46763 | 8.52748 | 11529 ft | 294 kts | 191° |
| 2026-04-27 07:38 | 42.44725 | 8.52264 | 12002 ft | 297 kts | 186° |
| 2026-04-27 07:38 | 42.42653 | 8.52014 | 12168 ft | 302 kts | 184° |
| 2026-04-27 07:38 | 42.40551 | 8.51815 | 12058 ft | 303 kts | 183° |
| 2026-04-27 07:38 | 42.38402 | 8.51610 | 11377 ft | 316 kts | 183° |
| 2026-04-27 07:39 | 42.36163 | 8.51380 | 10623 ft | 327 kts | 184° |
| 2026-04-27 07:39 | 42.33886 | 8.51131 | 10088 ft | 328 kts | 184° |
| 2026-04-27 07:39 | 42.31662 | 8.50876 | 9755 ft | 311 kts | 184° |
| 2026-04-27 07:39 | 42.29602 | 8.50633 | 9615 ft | 291 kts | 184° |
| 2026-04-27 07:40 | 42.27627 | 8.50400 | 9289 ft | 280 kts | 184° |
| 2026-04-27 07:40 | 42.25689 | 8.50171 | 8723 ft | 280 kts | 184° |
| 2026-04-27 07:40 | 42.23750 | 8.49941 | 8153 ft | 279 kts | 184° |
| 2026-04-27 07:40 | 42.21817 | 8.49712 | 7630 ft | 278 kts | 184° |
| 2026-04-27 07:41 | 42.19922 | 8.49487 | 7446 ft | 268 kts | 185° |
| 2026-04-27 07:41 | 42.18099 | 8.49270 | 7371 ft | 258 kts | 185° |
| 2026-04-27 07:41 | 42.16341 | 8.49237 | 7242 ft | 250 kts | 168° |
| 2026-04-27 07:41 | 42.14772 | 8.50266 | 6665 ft | 265 kts | 140° |
| 2026-04-27 07:42 | 42.13355 | 8.51878 | 6495 ft | 268 kts | 140° |
| 2026-04-27 07:42 | 42.11937 | 8.53488 | 6369 ft | 263 kts | 140° |
| 2026-04-27 07:42 | 42.10558 | 8.55050 | 6285 ft | 254 kts | 140° |
| 2026-04-27 07:42 | 42.09231 | 8.56548 | 6213 ft | 244 kts | 140° |
| 2026-04-27 07:43 | 42.07957 | 8.57984 | 6114 ft | 233 kts | 140° |
| 2026-04-27 07:43 | 42.06752 | 8.59340 | 6012 ft | 218 kts | 140° |
| 2026-04-27 07:43 | 42.05624 | 8.60606 | 5808 ft | 205 kts | 140° |
| 2026-04-27 07:43 | 42.04534 | 8.61829 | 5430 ft | 202 kts | 140° |
| 2026-04-27 07:44 | 42.03515 | 8.62971 | 5238 ft | 184 kts | 140° |
| 2026-04-27 07:44 | 42.02537 | 8.64066 | 4785 ft | 182 kts | 140° |
| 2026-04-27 07:44 | 42.01563 | 8.65156 | 4316 ft | 181 kts | 140° |
| 2026-04-27 07:44 | 42.00791 | 8.66474 | 3868 ft | 182 kts | 106° |
| 2026-04-27 07:45 | 42.00578 | 8.68109 | 3558 ft | 178 kts | 100° |
| 2026-04-27 07:45 | 42.00374 | 8.69687 | 3332 ft | 169 kts | 101° |
| 2026-04-27 07:45 | 42.00179 | 8.71192 | 3188 ft | 162 kts | 101° |
| 2026-04-27 07:45 | 41.99985 | 8.72670 | 3006 ft | 160 kts | 100° |
| 2026-04-27 07:46 | 41.99794 | 8.74134 | 2785 ft | 155 kts | 100° |
| 2026-04-27 07:46 | 41.99607 | 8.75561 | 2540 ft | 155 kts | 100° |
| 2026-04-27 07:46 | 41.99422 | 8.76971 | 2340 ft | 150 kts | 100° |
| 2026-04-27 07:46 | 41.99240 | 8.78361 | 2077 ft | 152 kts | 99° |
| 2026-04-27 07:47 | 41.99059 | 8.79738 | 1833 ft | 149 kts | 99° |
| 2026-04-27 07:47 | 41.98925 | 8.80652 | 1668 ft | 149 kts | 102° |
| 2026-04-27 07:47 | 41.98486 | 8.81905 | 1436 ft | 150 kts | 129° |
| 2026-04-27 07:47 | 41.97627 | 8.82668 | 1204 ft | 149 kts | 162° |
| 2026-04-27 07:48 | 41.96614 | 8.82765 | 979 ft | 146 kts | 189° |
| 2026-04-27 07:48 | 41.95647 | 8.82321 | 741 ft | 149 kts | 207° |
| 2026-04-27 07:48 | 41.94741 | 8.81711 | 542 ft | 143 kts | 206° |
| 2026-04-27 07:48 | 41.93845 | 8.81156 | 319 ft | 142 kts | 206° |
| 2026-04-27 07:49 | 41.92950 | 8.80597 | 59 ft | 140 kts | 205° |
| 2026-04-27 07:49 | 41.92121 | 8.80077 | 23 ft | 113 kts | 204° |
| 2026-04-27 07:49 | 41.91609 | 8.79758 | 22 ft | 49 kts | 205° |
| 2026-04-27 07:49 | 41.91435 | 8.79652 | 20 ft | 20 kts | 203° |
| 2026-04-27 07:50 | 41.91340 | 8.79593 | 24 ft | 19 kts | 207° |